Baie Verte, Canada
Current Conditions -  °F | °C
As of 2:00 PM on Thursday 18 Dec 2014 (Local Time) from CWDH Reporting Station
Clear Clear  
Wind Chill: 27°   Ceiling: Unl
Heat Index: 35°   Visibility: 9mi
Dew Point: 25°   Wind: 12mph
Humidity: 67%   Direction: 90°E
Pressure: 29.74"   Gusts: 18mph
Location:  49.92°N, 56.18°W
Report Text: CWDH 181700Z AUTO 09010G16KT 9SM NSC 02/M04 A2974 RMK SLP073 T00191037 WSI/SWOB
Loading
Personal Weather Stations






























Interactive Weather Map New forecast layout! Learn more

10-Day Weather Forecast

Advertisements
Track Severe Weather on mobile